Terminal Aerodrome Forecast
Issued by NWS Mt. Holly, NJ

Current Version | Previous Version | Text Only | Print | Product List | Glossary On
Versions: 1 2 3 4 5 6 7 8 9 10 11 12 13 14 15 16 17 18 19 20 21 22 23 24 25 26
000
FTUS41 KPHI 031746
TAFRDG
TAF
KRDG 031746Z 0318/0418 VRB03KT P6SM -SHSN OVC045
     FM031900 17004KT 4SM -SN OVC025
     FM032100 16006KT 1SM -PLSN OVC008
     FM040100 18006KT 1SM -FZRAPL OVC005
     FM040500 23006KT 2SM RA BR OVC003 WS020/23040KT
     FM040800 27004KT 2SM -RA BR OVC005
     FM041200 30004KT 2SM -RA BR OVC009=

USA.gov is the U.S. government's official web portal to all federal, state and local government web resources and services.